sensor_id;sensor_type;location;lat;lon;timestamp;P1;durP1;ratioP1;P2;durP2;ratioP2
35743;SDS011;21867;52.012;4.324;2023-05-07T00:02:05;23.47;;;19.10;;
35743;SDS011;21867;52.012;4.324;2023-05-07T00:04:33;25.13;;;19.27;;
35743;SDS011;21867;52.012;4.324;2023-05-07T00:07:02;21.50;;;17.57;;
35743;SDS011;21867;52.012;4.324;2023-05-07T00:09:29;24.53;;;20.07;;
35743;SDS011;21867;52.012;4.324;2023-05-07T00:11:56;21.20;;;18.40;;
35743;SDS011;21867;52.012;4.324;2023-05-07T00:14:23;25.83;;;18.73;;
35743;SDS011;21867;52.012;4.324;2023-05-07T00:16:51;24.43;;;18.33;;
35743;SDS011;21867;52.012;4.324;2023-05-07T00:19:18;23.20;;;18.93;;
35743;SDS011;21867;52.012;4.324;2023-05-07T00:21:45;21.53;;;19.23;;
35743;SDS011;21867;52.012;4.324;2023-05-07T00:24:14;24.93;;;19.20;;
35743;SDS011;21867;52.012;4.324;2023-05-07T00:26:41;20.60;;;18.40;;
35743;SDS011;21867;52.012;4.324;2023-05-07T00:29:08;21.83;;;18.80;;
35743;SDS011;21867;52.012;4.324;2023-05-07T00:31:36;28.00;;;19.10;;
35743;SDS011;21867;52.012;4.324;2023-05-07T00:34:03;20.90;;;17.70;;
35743;SDS011;21867;52.012;4.324;2023-05-07T00:36:31;20.97;;;16.53;;
35743;SDS011;21867;52.012;4.324;2023-05-07T00:38:58;23.57;;;18.67;;
35743;SDS011;21867;52.012;4.324;2023-05-07T00:41:27;25.20;;;18.53;;
35743;SDS011;21867;52.012;4.324;2023-05-07T00:43:54;21.20;;;18.90;;
35743;SDS011;21867;52.012;4.324;2023-05-07T00:46:22;22.87;;;19.80;;
35743;SDS011;21867;52.012;4.324;2023-05-07T00:48:50;23.47;;;19.37;;
35743;SDS011;21867;52.012;4.324;2023-05-07T00:51:17;20.20;;;17.53;;
35743;SDS011;21867;52.012;4.324;2023-05-07T00:53:45;21.93;;;17.97;;
35743;SDS011;21867;52.012;4.324;2023-05-07T00:56:13;22.73;;;18.13;;
35743;SDS011;21867;52.012;4.324;2023-05-07T00:58:42;21.53;;;17.50;;
35743;SDS011;21867;52.012;4.324;2023-05-07T01:01:09;23.73;;;17.00;;
35743;SDS011;21867;52.012;4.324;2023-05-07T01:03:37;17.57;;;15.37;;
35743;SDS011;21867;52.012;4.324;2023-05-07T01:06:05;20.33;;;17.13;;
35743;SDS011;21867;52.012;4.324;2023-05-07T01:08:33;17.73;;;15.90;;
35743;SDS011;21867;52.012;4.324;2023-05-07T01:11:01;19.07;;;16.60;;
35743;SDS011;21867;52.012;4.324;2023-05-07T01:13:28;20.50;;;17.43;;
35743;SDS011;21867;52.012;4.324;2023-05-07T01:15:57;18.23;;;16.23;;
35743;SDS011;21867;52.012;4.324;2023-05-07T01:18:25;17.03;;;15.23;;
35743;SDS011;21867;52.012;4.324;2023-05-07T01:20:53;20.33;;;16.00;;
35743;SDS011;21867;52.012;4.324;2023-05-07T01:23:22;18.37;;;16.13;;
35743;SDS011;21867;52.012;4.324;2023-05-07T01:25:53;17.03;;;13.60;;
35743;SDS011;21867;52.012;4.324;2023-05-07T01:28:22;16.40;;;14.60;;
35743;SDS011;21867;52.012;4.324;2023-05-07T01:30:52;18.83;;;16.30;;
35743;SDS011;21867;52.012;4.324;2023-05-07T01:33:20;18.57;;;15.40;;
35743;SDS011;21867;52.012;4.324;2023-05-07T01:35:48;15.03;;;13.40;;
35743;SDS011;21867;52.012;4.324;2023-05-07T01:38:16;16.50;;;14.57;;
35743;SDS011;21867;52.012;4.324;2023-05-07T01:40:45;19.33;;;15.53;;
35743;SDS011;21867;52.012;4.324;2023-05-07T01:43:13;18.90;;;15.20;;
35743;SDS011;21867;52.012;4.324;2023-05-07T01:45:40;17.03;;;15.23;;
35743;SDS011;21867;52.012;4.324;2023-05-07T01:48:09;16.13;;;14.40;;
35743;SDS011;21867;52.012;4.324;2023-05-07T01:50:37;19.27;;;16.07;;
35743;SDS011;21867;52.012;4.324;2023-05-07T01:53:04;18.70;;;15.93;;
35743;SDS011;21867;52.012;4.324;2023-05-07T01:55:31;19.77;;;17.13;;
35743;SDS011;21867;52.012;4.324;2023-05-07T01:58:00;18.63;;;16.67;;
35743;SDS011;21867;52.012;4.324;2023-05-07T02:00:27;18.80;;;16.53;;
35743;SDS011;21867;52.012;4.324;2023-05-07T02:02:54;17.37;;;15.47;;
35743;SDS011;21867;52.012;4.324;2023-05-07T02:05:33;17.73;;;15.70;;
35743;SDS011;21867;52.012;4.324;2023-05-07T02:08:07;17.73;;;15.97;;
35743;SDS011;21867;52.012;4.324;2023-05-07T02:10:34;17.27;;;15.47;;
35743;SDS011;21867;52.012;4.324;2023-05-07T02:13:05;16.93;;;14.97;;
35743;SDS011;21867;52.012;4.324;2023-05-07T02:15:33;20.03;;;17.83;;
35743;SDS011;21867;52.012;4.324;2023-05-07T02:18:02;17.90;;;15.57;;
35743;SDS011;21867;52.012;4.324;2023-05-07T02:20:30;17.83;;;15.33;;
35743;SDS011;21867;52.012;4.324;2023-05-07T02:22:58;17.23;;;15.07;;
35743;SDS011;21867;52.012;4.324;2023-05-07T02:25:27;18.10;;;15.07;;
35743;SDS011;21867;52.012;4.324;2023-05-07T02:27:55;15.33;;;13.73;;
35743;SDS011;21867;52.012;4.324;2023-05-07T02:30:32;15.83;;;13.80;;
35743;SDS011;21867;52.012;4.324;2023-05-07T02:32:59;17.57;;;15.17;;
35743;SDS011;21867;52.012;4.324;2023-05-07T02:35:26;16.30;;;14.60;;
35743;SDS011;21867;52.012;4.324;2023-05-07T02:37:54;16.90;;;15.27;;
35743;SDS011;21867;52.012;4.324;2023-05-07T02:40:23;19.47;;;15.80;;
35743;SDS011;21867;52.012;4.324;2023-05-07T02:42:51;19.27;;;15.63;;
35743;SDS011;21867;52.012;4.324;2023-05-07T02:45:18;17.60;;;15.13;;
35743;SDS011;21867;52.012;4.324;2023-05-07T02:47:49;16.57;;;14.87;;
35743;SDS011;21867;52.012;4.324;2023-05-07T02:50:16;18.03;;;16.30;;
35743;SDS011;21867;52.012;4.324;2023-05-07T02:52:44;19.03;;;15.07;;
35743;SDS011;21867;52.012;4.324;2023-05-07T02:55:11;17.13;;;15.53;;
35743;SDS011;21867;52.012;4.324;2023-05-07T02:57:38;18.73;;;15.73;;
35743;SDS011;21867;52.012;4.324;2023-05-07T03:00:10;17.20;;;15.60;;
35743;SDS011;21867;52.012;4.324;2023-05-07T03:02:38;16.53;;;14.97;;
35743;SDS011;21867;52.012;4.324;2023-05-07T03:05:07;17.10;;;15.23;;
35743;SDS011;21867;52.012;4.324;2023-05-07T03:07:35;14.93;;;13.40;;
35743;SDS011;21867;52.012;4.324;2023-05-07T03:10:02;17.73;;;15.93;;
35743;SDS011;21867;52.012;4.324;2023-05-07T03:12:29;18.10;;;15.87;;
35743;SDS011;21867;52.012;4.324;2023-05-07T03:14:57;15.53;;;14.03;;
35743;SDS011;21867;52.012;4.324;2023-05-07T03:17:24;17.60;;;15.90;;
35743;SDS011;21867;52.012;4.324;2023-05-07T03:19:51;18.00;;;16.10;;
35743;SDS011;21867;52.012;4.324;2023-05-07T03:22:20;16.97;;;15.17;;
35743;SDS011;21867;52.012;4.324;2023-05-07T03:24:47;18.20;;;15.43;;
35743;SDS011;21867;52.012;4.324;2023-05-07T03:27:14;18.17;;;16.07;;
35743;SDS011;21867;52.012;4.324;2023-05-07T03:29:42;17.70;;;14.87;;
35743;SDS011;21867;52.012;4.324;2023-05-07T03:32:10;17.87;;;15.97;;
35743;SDS011;21867;52.012;4.324;2023-05-07T03:34:37;15.60;;;14.20;;
35743;SDS011;21867;52.012;4.324;2023-05-07T03:37:05;17.13;;;15.30;;
35743;SDS011;21867;52.012;4.324;2023-05-07T03:39:34;15.30;;;13.80;;
35743;SDS011;21867;52.012;4.324;2023-05-07T03:42:02;16.23;;;14.33;;
35743;SDS011;21867;52.012;4.324;2023-05-07T03:44:31;15.43;;;13.93;;
35743;SDS011;21867;52.012;4.324;2023-05-07T03:46:59;18.07;;;16.20;;
35743;SDS011;21867;52.012;4.324;2023-05-07T03:49:27;17.27;;;15.47;;
35743;SDS011;21867;52.012;4.324;2023-05-07T03:51:54;17.67;;;14.63;;
35743;SDS011;21867;52.012;4.324;2023-05-07T03:54:22;15.27;;;13.47;;
35743;SDS011;21867;52.012;4.324;2023-05-07T03:56:51;17.40;;;15.60;;
35743;SDS011;21867;52.012;4.324;2023-05-07T03:59:18;16.80;;;15.10;;
35743;SDS011;21867;52.012;4.324;2023-05-07T04:01:47;14.50;;;12.17;;
35743;SDS011;21867;52.012;4.324;2023-05-07T04:04:16;15.53;;;14.03;;
35743;SDS011;21867;52.012;4.324;2023-05-07T04:06:44;16.00;;;14.27;;
35743;SDS011;21867;52.012;4.324;2023-05-07T04:09:12;16.13;;;13.80;;
35743;SDS011;21867;52.012;4.324;2023-05-07T04:11:39;15.93;;;14.13;;
35743;SDS011;21867;52.012;4.324;2023-05-07T04:14:10;14.77;;;13.27;;
35743;SDS011;21867;52.012;4.324;2023-05-07T04:16:38;15.20;;;13.67;;
35743;SDS011;21867;52.012;4.324;2023-05-07T04:19:06;16.30;;;14.70;;
35743;SDS011;21867;52.012;4.324;2023-05-07T04:21:35;18.10;;;13.30;;
35743;SDS011;21867;52.012;4.324;2023-05-07T04:24:03;14.80;;;13.40;;
35743;SDS011;21867;52.012;4.324;2023-05-07T04:26:31;15.30;;;13.63;;
35743;SDS011;21867;52.012;4.324;2023-05-07T04:28:59;18.13;;;15.20;;
35743;SDS011;21867;52.012;4.324;2023-05-07T04:31:32;15.37;;;13.97;;
35743;SDS011;21867;52.012;4.324;2023-05-07T04:34:00;15.97;;;14.40;;
35743;SDS011;21867;52.012;4.324;2023-05-07T04:36:27;15.90;;;14.30;;
35743;SDS011;21867;52.012;4.324;2023-05-07T04:38:59;16.20;;;12.73;;
35743;SDS011;21867;52.012;4.324;2023-05-07T04:41:26;14.00;;;12.47;;
35743;SDS011;21867;52.012;4.324;2023-05-07T04:43:54;15.47;;;13.63;;
35743;SDS011;21867;52.012;4.324;2023-05-07T04:46:23;18.30;;;13.63;;
35743;SDS011;21867;52.012;4.324;2023-05-07T04:48:52;16.00;;;12.97;;
35743;SDS011;21867;52.012;4.324;2023-05-07T04:51:19;14.20;;;12.83;;
35743;SDS011;21867;52.012;4.324;2023-05-07T04:53:47;17.03;;;13.50;;
35743;SDS011;21867;52.012;4.324;2023-05-07T04:56:15;14.77;;;13.27;;
35743;SDS011;21867;52.012;4.324;2023-05-07T04:58:44;14.67;;;13.17;;
35743;SDS011;21867;52.012;4.324;2023-05-07T05:01:12;14.23;;;12.83;;
35743;SDS011;21867;52.012;4.324;2023-05-07T05:03:40;22.87;;;13.53;;
35743;SDS011;21867;52.012;4.324;2023-05-07T05:06:09;14.77;;;13.27;;
35743;SDS011;21867;52.012;4.324;2023-05-07T05:08:37;14.50;;;12.93;;
35743;SDS011;21867;52.012;4.324;2023-05-07T05:11:04;13.17;;;11.77;;
35743;SDS011;21867;52.012;4.324;2023-05-07T05:13:34;13.87;;;12.50;;
35743;SDS011;21867;52.012;4.324;2023-05-07T05:16:08;13.90;;;12.47;;
35743;SDS011;21867;52.012;4.324;2023-05-07T05:18:36;15.03;;;13.20;;
35743;SDS011;21867;52.012;4.324;2023-05-07T05:21:03;17.80;;;13.83;;
35743;SDS011;21867;52.012;4.324;2023-05-07T05:23:33;14.30;;;12.83;;
35743;SDS011;21867;52.012;4.324;2023-05-07T05:26:01;15.47;;;13.10;;
35743;SDS011;21867;52.012;4.324;2023-05-07T05:28:30;13.47;;;12.27;;
35743;SDS011;21867;52.012;4.324;2023-05-07T05:30:58;15.27;;;12.93;;
35743;SDS011;21867;52.012;4.324;2023-05-07T05:33:28;13.77;;;12.13;;
35743;SDS011;21867;52.012;4.324;2023-05-07T05:36:00;14.23;;;12.77;;
35743;SDS011;21867;52.012;4.324;2023-05-07T05:38:28;13.23;;;11.83;;
35743;SDS011;21867;52.012;4.324;2023-05-07T05:40:57;14.97;;;12.20;;
35743;SDS011;21867;52.012;4.324;2023-05-07T05:43:24;14.93;;;12.73;;
35743;SDS011;21867;52.012;4.324;2023-05-07T05:45:52;13.10;;;11.77;;
35743;SDS011;21867;52.012;4.324;2023-05-07T05:48:19;13.97;;;11.60;;
35743;SDS011;21867;52.012;4.324;2023-05-07T05:50:47;12.23;;;11.07;;
35743;SDS011;21867;52.012;4.324;2023-05-07T05:53:17;12.50;;;11.30;;
35743;SDS011;21867;52.012;4.324;2023-05-07T05:55:44;14.00;;;12.10;;
35743;SDS011;21867;52.012;4.324;2023-05-07T05:58:13;15.13;;;12.07;;
35743;SDS011;21867;52.012;4.324;2023-05-07T06:00:45;13.60;;;12.00;;
35743;SDS011;21867;52.012;4.324;2023-05-07T06:03:13;13.20;;;11.90;;
35743;SDS011;21867;52.012;4.324;2023-05-07T06:05:41;13.47;;;11.93;;
35743;SDS011;21867;52.012;4.324;2023-05-07T06:08:09;13.40;;;10.80;;
35743;SDS011;21867;52.012;4.324;2023-05-07T06:10:36;13.33;;;12.03;;
35743;SDS011;21867;52.012;4.324;2023-05-07T06:13:05;12.83;;;11.63;;
35743;SDS011;21867;52.012;4.324;2023-05-07T06:15:35;13.43;;;11.90;;
35743;SDS011;21867;52.012;4.324;2023-05-07T06:18:07;14.37;;;12.40;;
35743;SDS011;21867;52.012;4.324;2023-05-07T06:20:35;16.73;;;12.60;;
35743;SDS011;21867;52.012;4.324;2023-05-07T06:23:06;19.87;;;11.87;;
35743;SDS011;21867;52.012;4.324;2023-05-07T06:25:33;13.97;;;11.90;;
35743;SDS011;21867;52.012;4.324;2023-05-07T06:28:01;12.93;;;10.83;;
35743;SDS011;21867;52.012;4.324;2023-05-07T06:30:29;13.80;;;11.77;;
35743;SDS011;21867;52.012;4.324;2023-05-07T06:32:58;11.67;;;10.37;;
35743;SDS011;21867;52.012;4.324;2023-05-07T06:35:25;12.90;;;11.60;;
35743;SDS011;21867;52.012;4.324;2023-05-07T06:37:53;14.47;;;11.93;;
35743;SDS011;21867;52.012;4.324;2023-05-07T06:40:23;12.90;;;11.27;;
35743;SDS011;21867;52.012;4.324;2023-05-07T06:42:51;12.93;;;10.90;;
35743;SDS011;21867;52.012;4.324;2023-05-07T06:45:41;12.40;;;11.00;;
35743;SDS011;21867;52.012;4.324;2023-05-07T06:48:11;13.13;;;11.73;;
35743;SDS011;21867;52.012;4.324;2023-05-07T06:50:48;13.33;;;12.13;;
35743;SDS011;21867;52.012;4.324;2023-05-07T06:53:17;13.97;;;12.57;;
35743;SDS011;21867;52.012;4.324;2023-05-07T06:55:44;12.77;;;11.57;;
35743;SDS011;21867;52.012;4.324;2023-05-07T06:58:12;14.83;;;11.50;;
35743;SDS011;21867;52.012;4.324;2023-05-07T07:00:39;13.07;;;11.47;;
35743;SDS011;21867;52.012;4.324;2023-05-07T07:03:07;12.80;;;11.50;;
35743;SDS011;21867;52.012;4.324;2023-05-07T07:05:35;13.43;;;12.03;;
35743;SDS011;21867;52.012;4.324;2023-05-07T07:08:03;11.00;;;9.77;;
35743;SDS011;21867;52.012;4.324;2023-05-07T07:10:30;12.97;;;11.53;;
35743;SDS011;21867;52.012;4.324;2023-05-07T07:12:58;12.27;;;10.13;;
35743;SDS011;21867;52.012;4.324;2023-05-07T07:15:26;11.87;;;10.67;;
35743;SDS011;21867;52.012;4.324;2023-05-07T07:17:54;10.00;;;9.00;;
35743;SDS011;21867;52.012;4.324;2023-05-07T07:20:23;10.20;;;8.67;;
35743;SDS011;21867;52.012;4.324;2023-05-07T07:22:51;13.37;;;8.87;;
35743;SDS011;21867;52.012;4.324;2023-05-07T07:25:20;15.20;;;9.93;;
35743;SDS011;21867;52.012;4.324;2023-05-07T07:27:48;13.13;;;8.67;;
35743;SDS011;21867;52.012;4.324;2023-05-07T07:30:16;13.13;;;8.50;;
35743;SDS011;21867;52.012;4.324;2023-05-07T07:32:46;9.67;;;8.70;;
35743;SDS011;21867;52.012;4.324;2023-05-07T07:35:14;12.10;;;9.53;;
35743;SDS011;21867;52.012;4.324;2023-05-07T07:37:43;9.80;;;8.47;;
35743;SDS011;21867;52.012;4.324;2023-05-07T07:40:13;10.63;;;9.57;;
35743;SDS011;21867;52.012;4.324;2023-05-07T07:42:41;12.57;;;9.50;;
35743;SDS011;21867;52.012;4.324;2023-05-07T07:45:10;10.33;;;8.67;;
35743;SDS011;21867;52.012;4.324;2023-05-07T07:47:42;12.60;;;8.83;;
35743;SDS011;21867;52.012;4.324;2023-05-07T07:50:09;11.17;;;8.67;;
35743;SDS011;21867;52.012;4.324;2023-05-07T07:52:45;10.30;;;8.27;;
35743;SDS011;21867;52.012;4.324;2023-05-07T07:55:19;13.47;;;10.33;;
35743;SDS011;21867;52.012;4.324;2023-05-07T07:57:46;14.33;;;9.93;;
35743;SDS011;21867;52.012;4.324;2023-05-07T08:00:14;10.10;;;9.03;;
35743;SDS011;21867;52.012;4.324;2023-05-07T08:02:42;13.07;;;8.47;;
35743;SDS011;21867;52.012;4.324;2023-05-07T08:05:16;10.17;;;8.67;;
35743;SDS011;21867;52.012;4.324;2023-05-07T08:07:44;12.30;;;9.53;;
35743;SDS011;21867;52.012;4.324;2023-05-07T08:10:12;10.43;;;7.80;;
35743;SDS011;21867;52.012;4.324;2023-05-07T08:12:41;12.87;;;8.13;;
35743;SDS011;21867;52.012;4.324;2023-05-07T08:15:09;14.67;;;8.23;;
35743;SDS011;21867;52.012;4.324;2023-05-07T08:17:36;11.40;;;7.17;;
35743;SDS011;21867;52.012;4.324;2023-05-07T08:20:04;16.60;;;7.03;;
35743;SDS011;21867;52.012;4.324;2023-05-07T08:22:32;15.67;;;7.90;;
35743;SDS011;21867;52.012;4.324;2023-05-07T08:24:59;22.03;;;9.57;;
35743;SDS011;21867;52.012;4.324;2023-05-07T08:27:27;8.50;;;7.60;;
35743;SDS011;21867;52.012;4.324;2023-05-07T08:29:55;24.60;;;9.63;;
35743;SDS011;21867;52.012;4.324;2023-05-07T08:32:23;9.33;;;8.33;;
35743;SDS011;21867;52.012;4.324;2023-05-07T08:34:52;11.50;;;8.77;;
35743;SDS011;21867;52.012;4.324;2023-05-07T08:37:20;13.37;;;8.87;;
35743;SDS011;21867;52.012;4.324;2023-05-07T08:39:48;10.43;;;8.67;;
35743;SDS011;21867;52.012;4.324;2023-05-07T08:42:19;13.73;;;8.80;;
35743;SDS011;21867;52.012;4.324;2023-05-07T08:44:47;14.13;;;9.03;;
35743;SDS011;21867;52.012;4.324;2023-05-07T08:47:18;14.37;;;7.97;;
35743;SDS011;21867;52.012;4.324;2023-05-07T08:49:49;9.77;;;6.37;;
35743;SDS011;21867;52.012;4.324;2023-05-07T08:52:17;9.83;;;5.50;;
35743;SDS011;21867;52.012;4.324;2023-05-07T08:54:44;9.97;;;5.80;;
35743;SDS011;21867;52.012;4.324;2023-05-07T08:57:11;7.67;;;5.23;;
35743;SDS011;21867;52.012;4.324;2023-05-07T08:59:39;10.23;;;5.70;;
35743;SDS011;21867;52.012;4.324;2023-05-07T09:02:09;9.87;;;5.77;;
35743;SDS011;21867;52.012;4.324;2023-05-07T09:04:39;12.93;;;5.53;;
35743;SDS011;21867;52.012;4.324;2023-05-07T09:07:07;7.17;;;5.40;;
35743;SDS011;21867;52.012;4.324;2023-05-07T09:09:39;10.30;;;6.23;;
35743;SDS011;21867;52.012;4.324;2023-05-07T09:12:07;7.93;;;6.03;;
35743;SDS011;21867;52.012;4.324;2023-05-07T09:14:35;10.60;;;6.37;;
35743;SDS011;21867;52.012;4.324;2023-05-07T09:17:03;9.50;;;6.47;;
35743;SDS011;21867;52.012;4.324;2023-05-07T09:19:31;8.20;;;6.10;;
35743;SDS011;21867;52.012;4.324;2023-05-07T09:22:03;10.70;;;6.77;;
35743;SDS011;21867;52.012;4.324;2023-05-07T09:24:41;10.83;;;6.33;;
35743;SDS011;21867;52.012;4.324;2023-05-07T09:27:14;8.93;;;6.80;;
35743;SDS011;21867;52.012;4.324;2023-05-07T09:29:43;14.57;;;8.97;;
35743;SDS011;21867;52.012;4.324;2023-05-07T09:32:12;7.20;;;6.50;;
35743;SDS011;21867;52.012;4.324;2023-05-07T09:34:39;19.93;;;8.67;;
35743;SDS011;21867;52.012;4.324;2023-05-07T09:37:10;7.17;;;5.67;;
35743;SDS011;21867;52.012;4.324;2023-05-07T09:39:39;11.90;;;7.27;;
35743;SDS011;21867;52.012;4.324;2023-05-07T09:42:07;10.90;;;6.23;;
35743;SDS011;21867;52.012;4.324;2023-05-07T09:44:35;8.10;;;6.33;;
35743;SDS011;21867;52.012;4.324;2023-05-07T09:47:06;13.43;;;7.33;;
35743;SDS011;21867;52.012;4.324;2023-05-07T09:49:39;10.00;;;8.27;;
35743;SDS011;21867;52.012;4.324;2023-05-07T09:52:11;10.23;;;7.77;;
35743;SDS011;21867;52.012;4.324;2023-05-07T09:54:45;11.10;;;7.07;;
35743;SDS011;21867;52.012;4.324;2023-05-07T09:57:16;10.43;;;7.30;;
35743;SDS011;21867;52.012;4.324;2023-05-07T09:59:46;12.27;;;7.07;;
35743;SDS011;21867;52.012;4.324;2023-05-07T10:02:16;11.07;;;5.23;;
35743;SDS011;21867;52.012;4.324;2023-05-07T10:04:47;9.17;;;6.83;;
35743;SDS011;21867;52.012;4.324;2023-05-07T10:07:20;9.73;;;6.70;;
35743;SDS011;21867;52.012;4.324;2023-05-07T10:09:51;10.63;;;6.60;;
35743;SDS011;21867;52.012;4.324;2023-05-07T10:12:29;10.00;;;7.97;;
35743;SDS011;21867;52.012;4.324;2023-05-07T10:14:57;10.03;;;7.67;;
35743;SDS011;21867;52.012;4.324;2023-05-07T10:17:25;16.47;;;7.80;;
35743;SDS011;21867;52.012;4.324;2023-05-07T10:19:52;11.03;;;6.30;;
35743;SDS011;21867;52.012;4.324;2023-05-07T10:22:22;11.40;;;6.77;;
35743;SDS011;21867;52.012;4.324;2023-05-07T10:24:51;11.10;;;6.47;;
35743;SDS011;21867;52.012;4.324;2023-05-07T10:27:19;11.60;;;6.73;;
35743;SDS011;21867;52.012;4.324;2023-05-07T10:29:53;11.33;;;6.10;;
35743;SDS011;21867;52.012;4.324;2023-05-07T10:32:32;12.43;;;6.30;;
35743;SDS011;21867;52.012;4.324;2023-05-07T10:35:02;11.90;;;7.13;;
35743;SDS011;21867;52.012;4.324;2023-05-07T10:37:32;10.13;;;7.00;;
35743;SDS011;21867;52.012;4.324;2023-05-07T10:39:59;14.50;;;8.20;;
35743;SDS011;21867;52.012;4.324;2023-05-07T10:42:29;12.43;;;6.40;;
35743;SDS011;21867;52.012;4.324;2023-05-07T10:44:57;6.40;;;4.13;;
35743;SDS011;21867;52.012;4.324;2023-05-07T10:47:29;13.47;;;7.17;;
35743;SDS011;21867;52.012;4.324;2023-05-07T10:52:46;11.47;;;7.00;;
35743;SDS011;21867;52.012;4.324;2023-05-07T10:55:33;12.63;;;7.77;;
35743;SDS011;21867;52.012;4.324;2023-05-07T10:58:24;9.83;;;7.80;;
35743;SDS011;21867;52.012;4.324;2023-05-07T11:01:14;11.33;;;7.30;;
35743;SDS011;21867;52.012;4.324;2023-05-07T11:06:24;19.90;;;7.67;;
35743;SDS011;21867;52.012;4.324;2023-05-07T11:09:02;11.57;;;8.57;;
35743;SDS011;21867;52.012;4.324;2023-05-07T11:11:46;13.33;;;9.13;;
35743;SDS011;21867;52.012;4.324;2023-05-07T11:14:45;12.10;;;8.90;;
35743;SDS011;21867;52.012;4.324;2023-05-07T11:17:23;11.50;;;8.97;;
35743;SDS011;21867;52.012;4.324;2023-05-07T11:19:59;15.80;;;8.77;;
35743;SDS011;21867;52.012;4.324;2023-05-07T11:22:38;9.87;;;7.27;;
35743;SDS011;21867;52.012;4.324;2023-05-07T11:25:29;11.23;;;7.13;;
35743;SDS011;21867;52.012;4.324;2023-05-07T11:28:05;10.90;;;7.67;;
35743;SDS011;21867;52.012;4.324;2023-05-07T11:30:34;9.23;;;8.03;;
35743;SDS011;21867;52.012;4.324;2023-05-07T11:33:03;13.47;;;7.60;;
35743;SDS011;21867;52.012;4.324;2023-05-07T11:35:32;14.43;;;7.60;;
35743;SDS011;21867;52.012;4.324;2023-05-07T11:38:03;22.77;;;12.00;;
35743;SDS011;21867;52.012;4.324;2023-05-07T11:40:34;19.27;;;12.00;;
35743;SDS011;21867;52.012;4.324;2023-05-07T11:43:09;18.17;;;10.83;;
35743;SDS011;21867;52.012;4.324;2023-05-07T11:45:37;18.73;;;10.83;;
35743;SDS011;21867;52.012;4.324;2023-05-07T11:48:04;21.27;;;11.17;;
35743;SDS011;21867;52.012;4.324;2023-05-07T11:50:32;15.30;;;11.30;;
35743;SDS011;21867;52.012;4.324;2023-05-07T11:52:59;19.23;;;12.97;;
35743;SDS011;21867;52.012;4.324;2023-05-07T11:55:26;21.77;;;10.50;;
35743;SDS011;21867;52.012;4.324;2023-05-07T11:57:55;16.93;;;12.80;;
35743;SDS011;21867;52.012;4.324;2023-05-07T12:00:23;25.37;;;13.17;;
35743;SDS011;21867;52.012;4.324;2023-05-07T12:02:50;19.27;;;13.77;;
35743;SDS011;21867;52.012;4.324;2023-05-07T12:05:18;20.60;;;13.43;;
35743;SDS011;21867;52.012;4.324;2023-05-07T12:07:45;18.23;;;12.50;;
35743;SDS011;21867;52.012;4.324;2023-05-07T12:10:12;16.97;;;13.47;;
35743;SDS011;21867;52.012;4.324;2023-05-07T12:12:40;14.40;;;12.83;;
35743;SDS011;21867;52.012;4.324;2023-05-07T12:15:09;19.83;;;14.17;;
35743;SDS011;21867;52.012;4.324;2023-05-07T12:17:37;17.50;;;15.17;;
35743;SDS011;21867;52.012;4.324;2023-05-07T12:20:05;20.60;;;14.97;;
35743;SDS011;21867;52.012;4.324;2023-05-07T12:22:33;20.50;;;14.93;;
35743;SDS011;21867;52.012;4.324;2023-05-07T12:25:01;19.50;;;14.97;;
35743;SDS011;21867;52.012;4.324;2023-05-07T12:27:28;17.97;;;15.03;;
35743;SDS011;21867;52.012;4.324;2023-05-07T12:29:56;20.20;;;14.93;;
35743;SDS011;21867;52.012;4.324;2023-05-07T12:32:25;23.00;;;13.50;;
35743;SDS011;21867;52.012;4.324;2023-05-07T12:34:53;23.03;;;13.90;;
35743;SDS011;21867;52.012;4.324;2023-05-07T12:37:23;19.53;;;12.63;;
35743;SDS011;21867;52.012;4.324;2023-05-07T12:40:03;15.10;;;12.73;;
35743;SDS011;21867;52.012;4.324;2023-05-07T12:42:32;20.07;;;13.77;;
35743;SDS011;21867;52.012;4.324;2023-05-07T12:44:59;25.13;;;15.13;;
35743;SDS011;21867;52.012;4.324;2023-05-07T12:47:28;16.77;;;12.77;;
35743;SDS011;21867;52.012;4.324;2023-05-07T12:49:55;25.77;;;12.60;;
35743;SDS011;21867;52.012;4.324;2023-05-07T12:52:23;19.77;;;14.80;;
35743;SDS011;21867;52.012;4.324;2023-05-07T12:54:50;25.10;;;15.47;;
35743;SDS011;21867;52.012;4.324;2023-05-07T12:57:19;16.83;;;12.80;;
35743;SDS011;21867;52.012;4.324;2023-05-07T12:59:46;21.90;;;15.47;;
35743;SDS011;21867;52.012;4.324;2023-05-07T13:02:13;19.40;;;15.77;;
35743;SDS011;21867;52.012;4.324;2023-05-07T13:04:42;19.83;;;15.77;;
35743;SDS011;21867;52.012;4.324;2023-05-07T13:07:09;23.33;;;16.03;;
35743;SDS011;21867;52.012;4.324;2023-05-07T13:09:36;19.67;;;17.33;;
35743;SDS011;21867;52.012;4.324;2023-05-07T13:12:04;18.13;;;15.33;;
35743;SDS011;21867;52.012;4.324;2023-05-07T13:14:32;21.93;;;16.17;;
35743;SDS011;21867;52.012;4.324;2023-05-07T13:16:59;20.13;;;16.23;;
35743;SDS011;21867;52.012;4.324;2023-05-07T13:19:26;21.90;;;17.13;;
35743;SDS011;21867;52.012;4.324;2023-05-07T13:21:58;20.30;;;16.90;;
35743;SDS011;21867;52.012;4.324;2023-05-07T13:24:25;18.57;;;16.40;;
35743;SDS011;21867;52.012;4.324;2023-05-07T13:26:52;23.10;;;15.83;;
35743;SDS011;21867;52.012;4.324;2023-05-07T13:29:19;20.13;;;15.43;;
35743;SDS011;21867;52.012;4.324;2023-05-07T13:31:47;19.00;;;16.67;;
35743;SDS011;21867;52.012;4.324;2023-05-07T13:34:15;19.33;;;17.23;;
35743;SDS011;21867;52.012;4.324;2023-05-07T13:36:43;32.60;;;14.97;;
35743;SDS011;21867;52.012;4.324;2023-05-07T13:39:11;27.27;;;16.07;;
35743;SDS011;21867;52.012;4.324;2023-05-07T13:41:39;21.60;;;14.93;;
35743;SDS011;21867;52.012;4.324;2023-05-07T13:44:06;24.70;;;16.80;;
35743;SDS011;21867;52.012;4.324;2023-05-07T13:46:33;24.43;;;14.90;;
35743;SDS011;21867;52.012;4.324;2023-05-07T13:49:01;21.17;;;15.77;;
35743;SDS011;21867;52.012;4.324;2023-05-07T13:51:28;23.27;;;16.73;;
35743;SDS011;21867;52.012;4.324;2023-05-07T13:53:55;20.93;;;16.57;;
35743;SDS011;21867;52.012;4.324;2023-05-07T13:56:24;19.40;;;16.93;;
35743;SDS011;21867;52.012;4.324;2023-05-07T13:58:51;29.73;;;12.00;;
35743;SDS011;21867;52.012;4.324;2023-05-07T14:01:26;26.07;;;16.37;;
35743;SDS011;21867;52.012;4.324;2023-05-07T14:03:53;20.00;;;15.17;;
35743;SDS011;21867;52.012;4.324;2023-05-07T14:06:21;32.77;;;14.40;;
35743;SDS011;21867;52.012;4.324;2023-05-07T14:08:48;21.27;;;17.60;;
35743;SDS011;21867;52.012;4.324;2023-05-07T14:11:16;20.17;;;15.60;;
35743;SDS011;21867;52.012;4.324;2023-05-07T14:13:45;18.57;;;15.23;;
35743;SDS011;21867;52.012;4.324;2023-05-07T14:16:12;16.40;;;14.47;;
35743;SDS011;21867;52.012;4.324;2023-05-07T14:18:39;18.37;;;12.53;;
35743;SDS011;21867;52.012;4.324;2023-05-07T14:21:07;20.80;;;14.93;;
35743;SDS011;21867;52.012;4.324;2023-05-07T14:23:34;22.47;;;15.50;;
35743;SDS011;21867;52.012;4.324;2023-05-07T14:26:01;22.67;;;15.87;;
35743;SDS011;21867;52.012;4.324;2023-05-07T14:28:29;21.80;;;15.77;;
35743;SDS011;21867;52.012;4.324;2023-05-07T14:30:58;23.00;;;15.43;;
35743;SDS011;21867;52.012;4.324;2023-05-07T14:33:25;17.27;;;15.00;;
35743;SDS011;21867;52.012;4.324;2023-05-07T14:35:52;19.87;;;13.03;;
35743;SDS011;21867;52.012;4.324;2023-05-07T14:38:20;18.23;;;13.57;;
35743;SDS011;21867;52.012;4.324;2023-05-07T14:40:48;19.73;;;13.27;;
35743;SDS011;21867;52.012;4.324;2023-05-07T14:43:15;20.63;;;13.17;;